Combes, Texas
Current Conditions -  °F | °C
As of 2:52 AM on Wednesday 26 Nov 2014 (Local Time) from KHRL Reporting Station
Clear Clear  
Wind Chill: 42°   Ceiling: Unl
Heat Index: 46°   Visibility: 10mi
Dew Point: 41°   Wind: 8mph
Humidity: 83%   Direction: 190°S
Pressure: 30.25"   Gusts: NA
Location:  26.25°N, 97.73°W
Report Text: KHRL 260852Z AUTO 19007KT 10SM CLR 08/05 A3025 RMK AO2 SLP244 T00780050 57017
Loading
Personal Weather Stations






























Interactive Weather Map New forecast layout! Learn more

10-Day Weather Forecast

Advertisements
Track Severe Weather on mobile